createdAt,value
2018-04-13T00:00:21.436Z,8.50
2018-04-13T00:02:51.551Z,8.40
2018-04-13T00:05:21.636Z,8.40
2018-04-13T00:07:51.905Z,8.20
2018-04-13T00:10:22.752Z,8.20
2018-04-13T00:12:53.007Z,8.10
2018-04-13T00:15:23.203Z,8.10
2018-04-13T00:17:53.464Z,8.10
2018-04-13T00:20:23.320Z,8.20
2018-04-13T00:22:53.759Z,8.20
2018-04-13T00:25:23.857Z,8.20
2018-04-13T00:27:53.929Z,8.10
2018-04-13T00:30:24.007Z,8.10
2018-04-13T00:32:54.097Z,8.10
2018-04-13T00:35:25.184Z,8.10
2018-04-13T00:37:55.455Z,8.10
2018-04-13T00:40:25.539Z,8.10
2018-04-13T00:42:56.374Z,8.30
2018-04-13T00:45:26.726Z,8.30
2018-04-13T00:47:56.800Z,8.40
2018-04-13T00:50:26.906Z,8.60
2018-04-13T00:53:13.767Z,8.60
2018-04-13T00:55:43.911Z,8.60
2018-04-13T00:58:14.760Z,8.60
2018-04-13T01:00:44.378Z,8.60
2018-04-13T01:03:14.902Z,8.70
2018-04-13T01:05:45.026Z,8.60
2018-04-13T01:08:15.295Z,8.60
2018-04-13T01:10:45.666Z,8.60
2018-04-13T01:13:16.246Z,8.60
2018-04-13T01:15:46.312Z,8.70
2018-04-13T01:18:17.184Z,8.70
2018-04-13T01:20:47.311Z,8.70
2018-04-13T01:23:17.867Z,8.80
2018-04-13T01:25:48.227Z,8.90
2018-04-13T01:28:18.687Z,8.90
2018-04-13T01:30:49.550Z,8.90
2018-04-13T01:33:20.370Z,8.90
2018-04-13T01:35:50.635Z,8.90
2018-04-13T01:38:20.895Z,8.80
2018-04-13T01:40:51.804Z,8.70
2018-04-13T01:43:21.848Z,8.70
2018-04-13T01:45:52.271Z,8.70
2018-04-13T01:48:22.336Z,8.70
2018-04-13T01:50:52.635Z,8.70
2018-04-13T01:53:23.018Z,8.70
2018-04-13T01:55:53.318Z,8.80
2018-04-13T01:58:23.670Z,8.90
2018-04-13T02:00:53.571Z,8.80
2018-04-13T02:03:24.770Z,8.60
2018-04-13T02:05:54.526Z,8.60
2018-04-13T02:08:24.630Z,8.60
2018-04-13T02:10:54.713Z,8.60
2018-04-13T02:13:24.994Z,8.50
2018-04-13T02:15:55.059Z,8.40
2018-04-13T02:18:26.367Z,8.30
2018-04-13T02:20:56.441Z,8.30
2018-04-13T02:23:27.272Z,8.20
2018-04-13T02:25:57.597Z,8.20
2018-04-13T02:28:28.731Z,8.20
2018-04-13T02:30:58.823Z,8.10
2018-04-13T02:33:29.367Z,8.10
2018-04-13T02:35:59.903Z,8.10
2018-04-13T02:38:29.974Z,8.00
2018-04-13T02:41:01.798Z,8.00
2018-04-13T02:43:32.871Z,7.90
2018-04-13T02:46:03.715Z,7.80
2018-04-13T02:48:33.812Z,7.80
2018-04-13T02:51:03.654Z,7.70
2018-04-13T02:53:33.736Z,7.60
2018-04-13T02:56:03.824Z,7.50
2018-04-13T02:58:34.912Z,7.20
2018-04-13T03:01:05.191Z,7.00
2018-04-13T03:03:35.262Z,6.80
2018-04-13T03:06:06.135Z,6.90
2018-04-13T03:08:36.243Z,6.90
2018-04-13T03:11:06.358Z,7.10
2018-04-13T03:13:36.445Z,7.20
2018-04-13T03:16:06.299Z,7.20
2018-04-13T03:18:37.156Z,6.90
2018-04-13T03:21:08.235Z,6.90
2018-04-13T03:23:38.310Z,6.70
2018-04-13T03:26:08.468Z,6.50
2018-04-13T03:28:38.553Z,6.50
2018-04-13T03:31:09.119Z,6.30
2018-04-13T03:33:40.900Z,6.30
2018-04-13T03:36:11.896Z,6.30
2018-04-13T03:38:42.194Z,6.40
2018-04-13T03:41:12.276Z,6.50
2018-04-13T03:43:42.339Z,6.70
2018-04-13T03:46:12.418Z,6.90
2018-04-13T03:48:43.256Z,7.20
2018-04-13T03:51:13.527Z,7.10
2018-04-13T03:53:43.777Z,7.30
2018-04-13T03:56:13.869Z,7.40
2018-04-13T03:58:43.937Z,7.50
2018-04-13T04:01:14.210Z,7.60
2018-04-13T04:03:44.311Z,7.60
2018-04-13T04:06:14.387Z,7.60
2018-04-13T04:08:44.227Z,7.60
2018-04-13T04:11:14.325Z,7.60
2018-04-13T04:13:44.891Z,7.60
2018-04-13T04:16:15.172Z,7.60
2018-04-13T04:18:45.261Z,7.60
2018-04-13T04:21:32.705Z,7.70
2018-04-13T04:24:21.515Z,7.60
2018-04-13T04:26:50.974Z,7.70
2018-04-13T04:29:21.052Z,7.70
2018-04-13T04:31:50.804Z,7.70
2018-04-13T04:34:21.682Z,7.80
2018-04-13T04:36:52.857Z,7.90
2018-04-13T04:39:23.906Z,7.90
2018-04-13T04:41:54.763Z,7.90
2018-04-13T04:44:25.585Z,7.90
2018-04-13T04:46:55.892Z,7.90
2018-04-13T04:49:25.972Z,7.90
2018-04-13T04:51:56.205Z,7.90
2018-04-13T04:54:26.532Z,7.90
2018-04-13T04:56:57.355Z,8.00
2018-04-13T04:59:27.622Z,8.00
2018-04-13T05:01:57.982Z,8.10
2018-04-13T05:04:28.815Z,8.10
2018-04-13T05:06:58.886Z,8.00
2018-04-13T05:09:29.754Z,8.10
2018-04-13T05:11:59.545Z,8.10
2018-04-13T05:14:30.537Z,8.10
2018-04-13T05:17:01.393Z,8.10
2018-04-13T05:19:31.436Z,8.10
2018-04-13T05:22:01.730Z,8.20
2018-04-13T05:24:31.775Z,8.20
2018-04-13T05:27:01.871Z,8.30
2018-04-13T05:29:31.976Z,8.30
2018-04-13T05:32:02.083Z,8.40
2018-04-13T05:34:33.103Z,8.40
2018-04-13T05:37:03.193Z,8.40
2018-04-13T05:39:33.436Z,8.50
2018-04-13T05:42:04.314Z,8.50
2018-04-13T05:44:34.374Z,8.50
2018-04-13T05:47:04.450Z,8.60
2018-04-13T05:49:34.719Z,8.60
2018-04-13T05:52:05.172Z,8.70
2018-04-13T05:54:35.468Z,8.80
2018-04-13T05:57:05.227Z,8.80
2018-04-13T05:59:35.023Z,8.90
2018-04-13T06:02:04.759Z,9.00
2018-04-13T06:04:34.833Z,9.10
2018-04-13T06:07:05.032Z,9.20
2018-04-13T06:09:35.865Z,9.40
2018-04-13T06:12:05.820Z,9.30
2018-04-13T06:14:36.295Z,9.40
2018-04-13T06:17:06.568Z,9.50
2018-04-13T06:19:36.901Z,9.60
2018-04-13T06:22:07.146Z,9.70
2018-04-13T06:24:37.431Z,9.90
2018-04-13T06:27:07.515Z,10.00
2018-04-13T06:29:37.849Z,10.10
2018-04-13T06:32:07.855Z,10.20
2018-04-13T06:34:37.939Z,10.20
2018-04-13T06:37:08.827Z,10.20
2018-04-13T06:39:39.651Z,10.20
2018-04-13T06:42:09.733Z,10.10
2018-04-13T06:44:40.079Z,10.10
2018-04-13T06:47:10.174Z,10.10
2018-04-13T06:49:40.255Z,10.20
2018-04-13T06:52:11.324Z,10.30
2018-04-13T06:54:42.192Z,10.40
2018-04-13T06:57:13.063Z,10.50
2018-04-13T06:59:43.908Z,10.50
2018-04-13T07:02:14.802Z,10.70
2018-04-13T07:04:44.897Z,10.70
2018-04-13T07:07:14.815Z,10.80
2018-04-13T07:09:44.915Z,10.80
2018-04-13T07:12:15.775Z,10.60
2018-04-13T07:14:46.832Z,10.60
2018-04-13T07:17:18.477Z,10.50
2018-04-13T07:19:48.546Z,10.50
2018-04-13T07:22:19.617Z,10.40
2018-04-13T07:24:50.484Z,10.30
2018-04-13T07:27:21.348Z,10.30
2018-04-13T07:29:52.160Z,10.30
2018-04-13T07:32:23.447Z,10.30
2018-04-13T07:34:53.104Z,10.40
2018-04-13T07:37:23.177Z,10.40
2018-04-13T07:39:53.523Z,10.50
2018-04-13T07:42:23.807Z,10.60
2018-04-13T07:44:53.957Z,10.60
2018-04-13T07:47:24.072Z,10.70
2018-04-13T07:49:53.933Z,10.70
2018-04-13T07:52:24.056Z,10.70
2018-04-13T07:54:55.089Z,10.50
2018-04-13T07:57:25.466Z,10.60
2018-04-13T07:59:55.608Z,10.50
2018-04-13T08:02:26.458Z,10.60
2018-04-13T08:04:56.730Z,10.60
2018-04-13T08:07:26.834Z,10.60
2018-04-13T08:09:57.126Z,10.60
2018-04-13T08:12:27.222Z,10.70
2018-04-13T08:14:57.899Z,10.60
2018-04-13T08:17:28.784Z,10.60
2018-04-13T08:19:59.152Z,10.60
2018-04-13T08:22:29.985Z,10.80
2018-04-13T08:25:00.387Z,10.80
2018-04-13T08:27:30.485Z,10.80
2018-04-13T08:30:01.338Z,11.00
2018-04-13T08:32:31.474Z,11.00
2018-04-13T08:35:01.574Z,10.90
2018-04-13T08:37:31.871Z,10.80
2018-04-13T08:40:01.940Z,10.80
2018-04-13T08:42:31.791Z,10.80
2018-04-13T08:45:01.936Z,10.80
2018-04-13T08:47:32.288Z,10.80
2018-04-13T08:50:02.030Z,10.70
2018-04-13T08:52:32.303Z,10.80
2018-04-13T08:55:02.621Z,10.80
2018-04-13T08:57:32.922Z,10.90
2018-04-13T09:00:03.175Z,10.90
2018-04-13T09:02:33.556Z,10.80
2018-04-13T09:05:04.097Z,10.70
2018-04-13T09:07:34.179Z,10.70
2018-04-13T09:10:03.772Z,10.80
2018-04-13T09:12:34.058Z,10.90
2018-04-13T09:15:03.801Z,11.00
2018-04-13T09:17:34.101Z,11.00
2018-04-13T09:20:03.819Z,11.00
2018-04-13T09:22:34.112Z,11.00
2018-04-13T09:25:04.199Z,10.90
2018-04-13T09:27:34.310Z,10.90
2018-04-13T09:30:04.063Z,10.80
2018-04-13T09:32:34.169Z,10.80
2018-04-13T09:35:04.262Z,10.80
2018-04-13T09:37:34.375Z,10.60
2018-04-13T09:40:04.674Z,10.50
2018-04-13T09:42:34.787Z,10.70
2018-04-13T09:45:04.528Z,10.50
2018-04-13T09:47:34.780Z,10.50
2018-04-13T09:50:03.863Z,10.40
2018-04-13T09:52:33.949Z,10.20
2018-04-13T09:55:03.705Z,10.10
2018-04-13T09:57:33.816Z,10.10
2018-04-13T10:00:03.554Z,10.00
2018-04-13T10:02:38.306Z,10.10
2018-04-13T10:05:14.386Z,10.30
2018-04-13T10:07:44.455Z,10.20
2018-04-13T10:10:15.318Z,10.30
2018-04-13T10:12:46.180Z,10.30
2018-04-13T10:15:17.015Z,10.20
2018-04-13T10:17:47.347Z,10.30
2018-04-13T10:20:17.448Z,10.30
2018-04-13T10:22:47.568Z,10.30
2018-04-13T10:25:17.643Z,10.30
2018-04-13T10:27:47.760Z,10.40
2018-04-13T10:30:17.910Z,10.40
2018-04-13T10:32:48.028Z,10.50
2018-04-13T10:35:18.928Z,10.50
2018-04-13T10:37:49.196Z,10.50
2018-04-13T10:40:20.035Z,10.60
2018-04-13T10:42:50.976Z,10.40
2018-04-13T10:45:21.074Z,10.40
2018-04-13T10:47:51.184Z,10.40
2018-04-13T10:50:22.290Z,9.80
2018-04-13T10:52:52.378Z,9.80
2018-04-13T10:55:22.435Z,9.50
2018-04-13T10:57:53.287Z,9.10
2018-04-13T11:00:24.494Z,9.10
2018-04-13T11:02:55.328Z,8.90
2018-04-13T11:05:26.313Z,8.80
2018-04-13T11:07:56.404Z,8.80
2018-04-13T11:10:28.091Z,8.70
2018-04-13T11:12:58.311Z,8.70
2018-04-13T11:15:28.421Z,8.70
2018-04-13T11:17:58.772Z,8.70
2018-04-13T11:20:29.024Z,8.60
2018-04-13T11:23:00.681Z,8.60
2018-04-13T11:25:34.127Z,8.60
2018-04-13T11:28:07.523Z,8.50
2018-04-13T11:30:38.516Z,8.50
2018-04-13T11:33:08.824Z,8.60
2018-04-13T11:35:39.197Z,8.60
2018-04-13T11:38:09.540Z,8.60
2018-04-13T11:40:39.931Z,8.70
2018-04-13T11:43:10.076Z,8.80
2018-04-13T11:45:39.955Z,8.90
2018-04-13T11:48:10.919Z,8.80
2018-04-13T11:50:41.022Z,8.80
2018-04-13T11:53:11.096Z,8.80
2018-04-13T11:55:42.011Z,8.70
2018-04-13T11:58:12.112Z,8.60
2018-04-13T12:00:41.938Z,8.60
2018-04-13T12:03:12.324Z,8.70
2018-04-13T12:05:42.773Z,8.80
2018-04-13T12:08:13.032Z,8.80
2018-04-13T12:10:43.146Z,8.80
2018-04-13T12:13:14.571Z,8.70
2018-04-13T12:15:44.823Z,8.60
2018-04-13T12:18:15.415Z,8.80
2018-04-13T12:20:46.436Z,8.80
2018-04-13T12:23:16.513Z,8.80
2018-04-13T12:25:46.397Z,8.80
2018-04-13T12:28:16.656Z,8.70
2018-04-13T12:30:46.728Z,8.60
2018-04-13T12:33:17.309Z,8.60
2018-04-13T12:35:47.694Z,8.50
2018-04-13T12:38:18.999Z,8.50
2018-04-13T12:40:49.404Z,8.40
2018-04-13T12:43:20.447Z,8.30
2018-04-13T12:45:50.780Z,8.30
2018-04-13T12:48:21.168Z,8.20
2018-04-13T12:50:51.254Z,8.20
2018-04-13T12:53:21.438Z,8.30
2018-04-13T12:55:51.873Z,8.30
2018-04-13T12:58:21.879Z,8.20
2018-04-13T13:00:52.168Z,8.30
2018-04-13T13:03:22.665Z,8.40
2018-04-13T13:05:52.732Z,8.60
2018-04-13T13:08:23.116Z,8.60
2018-04-13T13:10:53.212Z,8.70
2018-04-13T13:13:23.299Z,8.70
2018-04-13T13:15:53.492Z,8.80
2018-04-13T13:18:23.388Z,8.90
2018-04-13T13:20:54.426Z,8.90
2018-04-13T13:23:24.797Z,8.90
2018-04-13T13:25:56.421Z,9.00
2018-04-13T13:28:27.646Z,9.10
2018-04-13T13:30:57.727Z,9.20
2018-04-13T13:33:28.604Z,9.40
2018-04-13T13:35:58.948Z,9.40
2018-04-13T13:38:29.099Z,9.60
2018-04-13T13:40:58.857Z,9.50
2018-04-13T13:43:28.928Z,9.50
2018-04-13T13:45:59.218Z,9.50
2018-04-13T13:48:29.308Z,9.60
2018-04-13T13:50:59.412Z,9.70
2018-04-13T13:53:29.521Z,9.70
2018-04-13T13:55:59.640Z,9.80
2018-04-13T13:58:30.521Z,9.90
2018-04-13T14:01:00.626Z,9.90
2018-04-13T14:03:30.737Z,9.90
2018-04-13T14:06:00.806Z,9.90
2018-04-13T14:08:31.660Z,9.90
2018-04-13T14:11:02.705Z,9.90
2018-04-13T14:13:33.591Z,9.90
2018-04-13T14:16:03.659Z,10.10
2018-04-13T14:18:33.764Z,10.20
2018-04-13T14:21:04.873Z,10.20
2018-04-13T14:23:35.915Z,10.20
2018-04-13T14:26:05.762Z,10.20
2018-04-13T14:28:35.843Z,10.10
2018-04-13T14:31:06.403Z,10.10
2018-04-13T14:33:36.500Z,10.00
2018-04-13T14:36:06.268Z,10.20
2018-04-13T14:38:36.580Z,10.30
2018-04-13T14:41:06.653Z,10.40
2018-04-13T14:43:36.793Z,10.50
2018-04-13T14:46:07.320Z,10.50
2018-04-13T14:48:38.072Z,10.50
2018-04-13T14:51:08.368Z,10.70
2018-04-13T14:53:38.149Z,10.70
2018-04-13T14:56:08.244Z,10.60
2018-04-13T14:58:38.322Z,10.60
2018-04-13T15:01:08.427Z,10.70
2018-04-13T15:03:38.530Z,10.90
2018-04-13T15:06:08.650Z,11.00
2018-04-13T15:08:38.943Z,10.90
2018-04-13T15:11:09.830Z,10.90
2018-04-13T15:13:40.001Z,10.80
2018-04-13T15:16:10.452Z,11.10
2018-04-13T15:18:40.758Z,11.10
2018-04-13T15:21:11.633Z,11.10
2018-04-13T15:23:42.498Z,11.20
2018-04-13T15:26:13.553Z,11.50
2018-04-13T15:28:44.384Z,11.60
2018-04-13T15:31:14.679Z,11.60
2018-04-13T15:33:45.126Z,11.60
2018-04-13T15:36:15.996Z,11.70
2018-04-13T15:38:46.086Z,11.60
2018-04-13T15:41:16.185Z,11.90
2018-04-13T15:43:46.277Z,11.90
2018-04-13T15:46:16.556Z,11.90
2018-04-13T15:48:47.214Z,12.00
2018-04-13T15:51:18.333Z,12.20
2018-04-13T15:53:48.420Z,12.40
2018-04-13T15:56:18.562Z,12.70
2018-04-13T15:58:49.687Z,12.80
2018-04-13T16:01:20.914Z,12.90
2018-04-13T16:03:52.076Z,12.90
2018-04-13T16:06:22.177Z,13.10
2018-04-13T16:08:52.953Z,13.30
2018-04-13T16:11:23.024Z,13.60
2018-04-13T16:13:53.075Z,13.90
2018-04-13T16:16:24.918Z,14.20
2018-04-13T16:18:57.577Z,14.60
2018-04-13T16:21:28.252Z,14.50
2018-04-13T16:23:58.524Z,14.40
2018-04-13T16:26:28.607Z,14.20
2018-04-13T16:28:58.962Z,14.60
2018-04-13T16:31:29.597Z,14.90
2018-04-13T16:34:02.210Z,14.90
2018-04-13T16:36:33.073Z,15.60
2018-04-13T16:39:03.239Z,15.80
2018-04-13T16:41:34.078Z,16.00
2018-04-13T16:44:04.029Z,16.10
2018-04-13T16:46:34.777Z,15.90
2018-04-13T16:49:04.917Z,15.70
2018-04-13T16:51:34.996Z,14.90
2018-04-13T16:54:04.769Z,14.20
2018-04-13T16:56:36.484Z,12.80
2018-04-13T16:59:07.060Z,12.80
2018-04-13T17:01:37.134Z,12.10
2018-04-13T17:04:07.211Z,11.60
2018-04-13T17:06:38.090Z,10.90
2018-04-13T17:09:08.153Z,10.60
2018-04-13T17:11:38.256Z,10.60
2018-04-13T17:14:08.360Z,10.30
2018-04-13T17:16:38.450Z,10.10
2018-04-13T17:19:08.579Z,9.90
2018-04-13T17:21:38.672Z,9.80
2018-04-13T17:24:08.784Z,9.50
2018-04-13T17:26:38.904Z,9.30
2018-04-13T17:29:09.006Z,9.10
2018-04-13T17:31:39.509Z,8.70
2018-04-13T17:34:09.484Z,8.60
2018-04-13T17:36:39.549Z,8.50
2018-04-13T17:39:10.218Z,8.40
2018-04-13T17:41:40.559Z,8.30
2018-04-13T17:44:10.752Z,8.10
2018-04-13T17:46:41.073Z,7.90
2018-04-13T17:49:11.228Z,7.80
2018-04-13T17:51:41.710Z,7.60
2018-04-13T17:54:11.853Z,7.40
2018-04-13T17:56:42.421Z,7.30
2018-04-13T17:59:12.597Z,7.10
2018-04-13T18:01:43.650Z,6.80
2018-04-13T18:04:14.551Z,6.70
2018-04-13T18:06:45.511Z,6.70
2018-04-13T18:09:16.945Z,6.60
2018-04-13T18:11:47.040Z,6.50
2018-04-13T18:14:17.887Z,6.40
2018-04-13T18:16:48.120Z,6.30
2018-04-13T18:19:18.253Z,6.20
2018-04-13T18:21:48.821Z,6.20
2018-04-13T18:24:19.706Z,6.10
2018-04-13T18:26:49.964Z,6.10
2018-04-13T18:29:20.743Z,6.10
2018-04-13T18:31:50.853Z,6.20
2018-04-13T18:34:21.155Z,6.10
2018-04-13T18:36:51.404Z,6.10
2018-04-13T18:39:22.967Z,6.10
2018-04-13T18:41:53.146Z,6.00
2018-04-13T18:44:25.581Z,6.00
2018-04-13T18:46:56.653Z,6.30
2018-04-13T18:49:26.911Z,6.50
2018-04-13T18:51:57.399Z,6.70
2018-04-13T18:54:27.888Z,6.70
2018-04-13T18:56:58.272Z,6.80
2018-04-13T18:59:30.080Z,6.70
2018-04-13T19:02:00.548Z,6.70
2018-04-13T19:04:31.525Z,6.70
2018-04-13T19:07:03.111Z,6.60
2018-04-13T19:09:34.366Z,6.40
2018-04-13T19:12:04.892Z,6.40
2018-04-13T19:14:35.836Z,6.40
2018-04-13T19:17:05.993Z,6.50
2018-04-13T19:19:37.097Z,6.60
2018-04-13T19:22:07.223Z,6.50
2018-04-13T19:24:37.333Z,6.50
2018-04-13T19:27:07.476Z,6.60
2018-04-13T19:29:37.835Z,6.60
2018-04-13T19:32:07.997Z,6.70
2018-04-13T19:34:39.166Z,6.70
2018-04-13T19:37:10.111Z,6.70
2018-04-13T19:39:40.735Z,6.70
2018-04-13T19:42:10.907Z,6.50
2018-04-13T19:44:41.296Z,6.50
2018-04-13T19:47:12.610Z,6.40
2018-04-13T19:49:42.756Z,6.40
2018-04-13T19:52:12.908Z,6.40
2018-04-13T19:54:43.021Z,6.30
2018-04-13T19:57:14.088Z,6.40
2018-04-13T19:59:44.653Z,6.40
2018-04-13T20:02:16.160Z,6.40
2018-04-13T20:04:47.383Z,6.30
2018-04-13T20:07:17.600Z,6.40
2018-04-13T20:09:49.768Z,6.40
2018-04-13T20:12:21.813Z,6.30
2018-04-13T20:14:53.543Z,6.30
2018-04-13T20:17:23.825Z,6.20
2018-04-13T20:19:56.778Z,6.20
2018-04-13T20:22:26.910Z,6.20
2018-04-13T20:24:57.514Z,6.10
2018-04-13T20:27:28.591Z,6.10
2018-04-13T20:29:59.308Z,6.10
2018-04-13T20:32:29.145Z,6.00
2018-04-13T20:34:59.763Z,6.00
2018-04-13T20:37:30.582Z,6.00
2018-04-13T20:40:02.320Z,6.00
2018-04-13T20:42:33.065Z,6.10
2018-04-13T20:45:03.996Z,6.00
2018-04-13T20:47:35.351Z,6.10
2018-04-13T20:50:05.771Z,6.00
2018-04-13T20:52:37.597Z,6.00
2018-04-13T20:55:08.673Z,6.00
2018-04-13T20:57:39.598Z,6.00
2018-04-13T21:00:09.574Z,6.00
2018-04-13T21:02:39.994Z,6.00
2018-04-13T21:05:10.405Z,6.00
2018-04-13T21:07:42.545Z,6.00
2018-04-13T21:10:13.508Z,5.90
2018-04-13T21:12:44.389Z,6.00
2018-04-13T21:15:15.240Z,5.90
2018-04-13T21:17:46.628Z,5.90
2018-04-13T21:20:17.079Z,5.90
2018-04-13T21:22:50.532Z,5.90
2018-04-13T21:25:21.176Z,5.90
2018-04-13T21:27:51.320Z,5.90
2018-04-13T21:30:21.101Z,5.90
2018-04-13T21:32:52.398Z,5.90
2018-04-13T21:35:23.248Z,6.00
2018-04-13T21:37:53.479Z,6.00
2018-04-13T21:40:26.280Z,6.00
2018-04-13T21:42:56.447Z,6.00
2018-04-13T21:45:26.678Z,5.90
2018-04-13T21:47:57.125Z,5.80
2018-04-13T21:50:27.312Z,5.80
2018-04-13T21:52:57.440Z,5.80
2018-04-13T21:55:27.611Z,5.90
2018-04-13T21:57:58.842Z,6.00
2018-04-13T22:00:29.006Z,6.00
2018-04-13T22:02:59.692Z,5.90
2018-04-13T22:05:29.864Z,5.90
2018-04-13T22:07:59.919Z,5.80
2018-04-13T22:10:30.012Z,5.70
2018-04-13T22:13:17.419Z,5.50
2018-04-13T22:15:48.480Z,5.50
2018-04-13T22:18:19.956Z,5.50
2018-04-13T22:20:50.123Z,5.50
2018-04-13T22:23:20.921Z,5.40
2018-04-13T22:25:51.320Z,5.50
2018-04-13T22:28:21.740Z,5.50
2018-04-13T22:30:51.938Z,5.70
2018-04-13T22:33:22.161Z,5.80
2018-04-13T22:35:51.963Z,5.80
2018-04-13T22:38:25.462Z,5.90
2018-04-13T22:40:56.705Z,6.00
2018-04-13T22:43:27.616Z,6.00
2018-04-13T22:45:57.805Z,6.10
2018-04-13T22:48:27.966Z,6.10
2018-04-13T22:50:58.029Z,6.10
2018-04-13T22:53:27.914Z,6.10
2018-04-13T22:55:58.041Z,6.20
2018-04-13T22:58:28.591Z,6.20
2018-04-13T23:00:59.417Z,6.20
2018-04-13T23:03:31.507Z,6.20
2018-04-13T23:06:03.880Z,6.30
2018-04-13T23:08:34.452Z,6.20
2018-04-13T23:11:05.791Z,6.20
2018-04-13T23:13:37.222Z,6.10
2018-04-13T23:16:07.343Z,6.20
2018-04-13T23:18:37.623Z,6.10
2018-04-13T23:21:07.721Z,6.10
2018-04-13T23:23:40.974Z,6.20
2018-04-13T23:26:12.427Z,6.20
2018-04-13T23:28:43.117Z,6.20
2018-04-13T23:31:13.519Z,6.10
2018-04-13T23:33:43.622Z,6.00
2018-04-13T23:36:14.248Z,5.90
2018-04-13T23:38:44.326Z,5.80
2018-04-13T23:41:20.510Z,5.70
2018-04-13T23:43:52.024Z,5.60
2018-04-13T23:46:22.452Z,5.40
2018-04-13T23:48:52.352Z,5.40
2018-04-13T23:51:24.140Z,5.30
2018-04-13T23:53:54.540Z,5.20
2018-04-13T23:56:24.781Z,5.30
2018-04-13T23:58:55.300Z,5.20
